Time;durP1;ratioP1;P1;durP2;ratioP2;P2;SDS_P1;SDS_P2;PMS_P1;PMS_P2;Temp;Humidity;BMP_temperature;BMP_pressure;BME280_temperature;BME280_humidity;BME280_pressure;Samples;Min_cycle;Max_cycle;Signal;HPM_P1;HPM_P2
2022/03/19 00:00:33;;;;;;;8.98;2.20;;;15.50;87.10;;;;;;4990521;28;20077;-72
2022/03/19 00:02:59;;;;;;;10.00;2.55;;;15.90;84.70;;;;;;4988493;28;20085;-71
2022/03/19 00:05:25;;;;;;;9.35;2.85;;;;;;;;;;4996298;28;20161;-72
2022/03/19 00:07:51;;;;;;;6.97;2.60;;;15.60;84.60;;;;;;4978868;28;20106;-70
2022/03/19 00:10:17;;;;;;;7.65;2.28;;;15.80;87.20;;;;;;4979156;28;20445;-69
2022/03/19 00:12:42;;;;;;;10.93;2.40;;;15.80;87.10;;;;;;4996367;28;20035;-72
2022/03/19 00:15:09;;;;;;;6.78;1.90;;;15.80;87.20;;;;;;5000925;28;20496;-71
2022/03/19 00:17:35;;;;;;;10.70;2.75;;;15.70;87.00;;;;;;5014601;28;20042;-68
2022/03/19 00:20:01;;;;;;;9.20;2.65;;;15.70;87.00;;;;;;5007995;28;20046;-70
2022/03/19 00:22:27;;;;;;;7.38;2.15;;;15.70;87.00;;;;;;4995942;28;20397;-71
2022/03/19 00:24:52;;;;;;;7.80;2.50;;;15.90;87.10;;;;;;4996065;28;20053;-71
2022/03/19 00:27:18;;;;;;;12.70;2.42;;;;;;;;;;5007113;28;20038;-71
2022/03/19 00:29:44;;;;;;;8.60;2.60;;;;;;;;;;4998281;28;20050;-72
2022/03/19 00:32:10;;;;;;;8.30;2.58;;;15.70;86.90;;;;;;5010290;28;20128;-73
2022/03/19 00:34:36;;;;;;;7.97;2.25;;;15.90;86.90;;;;;;4995459;28;20461;-71
2022/03/19 00:37:02;;;;;;;8.80;2.60;;;15.90;86.90;;;;;;5007227;28;20468;-66
2022/03/19 00:39:28;;;;;;;9.35;2.70;;;15.80;86.80;;;;;;5000168;28;20039;-66
2022/03/19 00:41:53;;;;;;;9.02;2.65;;;15.80;86.70;;;;;;4995417;28;20542;-67
2022/03/19 00:44:23;;;;;;;9.02;2.63;;;15.60;86.60;;;;;;5001281;28;20112;-71
2022/03/19 00:46:49;;;;;;;10.25;2.65;;;15.70;86.70;;;;;;5012783;28;20038;-71
2022/03/19 00:49:15;;;;;;;10.45;2.80;;;15.50;86.60;;;;;;4983970;28;20089;-70
2022/03/19 00:51:40;;;;;;;13.10;3.00;;;15.70;84.00;;;;;;4995585;28;20054;-69
2022/03/19 00:54:07;;;;;;;9.95;2.58;;;15.40;86.60;;;;;;4995506;28;20100;-73
2022/03/19 00:56:33;;;;;;;8.88;2.40;;;15.40;86.90;;;;;;4999836;28;20050;-73
2022/03/19 00:59:00;;;;;;;8.10;2.55;;;16.00;86.90;;;;;;5010843;28;20046;-73
2022/03/19 01:01:26;;;;;;;6.45;2.10;;;15.50;86.50;;;;;;5001597;28;20089;-73
2022/03/19 01:03:52;;;;;;;8.82;2.20;;;15.40;84.00;;;;;;4975977;28;20055;-74
2022/03/19 01:06:18;;;;;;;8.77;2.33;;;15.50;86.90;;;;;;4975468;28;20050;-74
2022/03/19 01:08:43;;;;;;;9.57;2.72;;;15.80;85.70;;;;;;4975901;28;20054;-73
2022/03/19 01:11:09;;;;;;;7.82;2.63;;;15.50;86.60;;;;;;4975708;28;20437;-74
2022/03/19 01:13:35;;;;;;;8.25;3.35;;;15.60;86.70;;;;;;4976124;28;20409;-74
2022/03/19 01:16:02;;;;;;;9.38;2.28;;;15.60;86.80;;;;;;4985191;28;20049;-71
2022/03/19 01:18:28;;;;;;;7.10;2.15;;;15.40;86.80;;;;;;4980683;28;20046;-71
2022/03/19 01:20:54;;;;;;;11.02;2.35;;;15.20;86.90;;;;;;4979995;28;20046;-71
2022/03/19 01:23:20;;;;;;;7.82;2.22;;;15.40;86.60;;;;;;4992129;28;20054;-71
2022/03/19 01:25:46;;;;;;;9.30;2.53;;;15.30;86.60;;;;;;4981485;28;20039;-71
2022/03/19 01:28:11;;;;;;;7.97;2.70;;;15.40;86.70;;;;;;4975781;28;20178;-70
2022/03/19 01:30:37;;;;;;;8.02;2.30;;;15.30;86.90;;;;;;4988755;28;20038;-71
2022/03/19 01:33:03;;;;;;;10.23;2.20;;;;;;;;;;4975517;28;20125;-72
2022/03/19 01:35:29;;;;;;;9.52;2.88;;;;;;;;;;4981748;28;20043;-73
2022/03/19 01:37:56;;;;;;;7.60;2.30;;;15.30;86.80;;;;;;4975496;28;20070;-73
2022/03/19 01:40:22;;;;;;;9.52;2.50;;;;;;;;;;4974885;28;20043;-73
2022/03/19 01:42:49;;;;;;;8.57;2.47;;;15.30;86.80;;;;;;4975232;28;20042;-74
2022/03/19 01:45:25;;;;;;;8.05;2.55;;;15.40;87.00;;;;;;4975306;28;20101;-73
2022/03/19 01:47:51;;;;;;;9.05;2.30;;;;;;;;;;4975106;28;20074;-73
2022/03/19 01:50:18;;;;;;;8.10;2.28;;;15.00;86.60;;;;;;4987870;28;20129;-74
2022/03/19 01:52:43;;;;;;;10.85;2.72;;;15.40;86.70;;;;;;4991034;28;20479;-74
2022/03/19 01:55:10;;;;;;;6.63;2.28;;;15.50;86.70;;;;;;4975034;28;20038;-73
2022/03/19 01:57:38;;;;;;;7.85;2.55;;;15.50;84.20;;;;;;4974842;28;20512;-73
2022/03/19 02:00:08;;;;;;;8.65;2.72;;;15.20;84.00;;;;;;4957399;28;20094;-70
2022/03/19 02:02:34;;;;;;;8.95;2.58;;;15.30;86.90;;;;;;4982022;28;20432;-73
2022/03/19 02:05:01;;;;;;;8.00;2.50;;;15.10;86.50;;;;;;4986308;28;20061;-72
2022/03/19 02:07:28;;;;;;;7.82;2.22;;;;;;;;;;4974381;28;20047;-73
2022/03/19 02:09:53;;;;;;;8.63;2.63;;;15.40;84.10;;;;;;4982527;28;20050;-72
2022/03/19 02:12:21;;;;;;;8.68;3.10;;;15.30;86.90;;;;;;4989172;28;20046;-73
2022/03/19 02:14:48;;;;;;;8.82;2.90;;;15.20;86.40;;;;;;4990706;28;20050;-70
2022/03/19 02:17:14;;;;;;;9.70;2.25;;;15.30;86.60;;;;;;4979262;28;20109;-70
2022/03/19 02:19:50;;;;;;;12.27;2.70;;;15.10;86.50;;;;;;4976041;28;20058;-70
2022/03/19 02:22:20;;;;;;;9.73;2.83;;;15.50;83.80;;;;;;4992232;28;20374;-70
2022/03/19 02:27:30;;;;;;;9.80;3.17;;;15.20;86.50;;;;;;4974613;28;20090;-70
2022/03/19 02:29:59;;;;;;;11.10;3.00;;;15.20;86.40;;;;;;4974419;28;20085;-70
2022/03/19 02:32:25;;;;;;;9.50;3.00;;;15.00;86.30;;;;;;4974222;28;20043;-70
2022/03/19 02:34:52;;;;;;;7.18;3.10;;;15.10;86.40;;;;;;4984447;28;20101;-70
2022/03/19 02:37:18;;;;;;;9.32;2.90;;;15.30;83.90;;;;;;4974387;28;20485;-70
2022/03/19 02:39:44;;;;;;;11.63;3.15;;;15.20;86.60;;;;;;4975054;28;20051;-73
2022/03/19 02:42:10;;;;;;;6.40;2.30;;;15.10;86.50;;;;;;4973482;28;20476;-73
2022/03/19 02:44:36;;;;;;;12.73;3.30;;;15.20;82.60;;;;;;4974458;28;20496;-70
2022/03/19 02:47:06;;;;;;;11.90;3.10;;;15.20;86.40;;;;;;4974237;28;20047;-70
2022/03/19 02:49:31;;;;;;;12.13;3.67;;;15.10;87.20;;;;;;4974252;28;20050;-68
2022/03/19 02:51:57;;;;;;;10.80;3.10;;;15.20;86.40;;;;;;4989601;28;20046;-71
2022/03/19 02:54:24;;;;;;;7.13;2.40;;;;;;;;;;4980350;28;20050;-71
2022/03/19 02:56:50;;;;;;;10.05;3.00;;;15.10;86.40;;;;;;4985199;28;20049;-71
2022/03/19 02:59:17;;;;;;;10.70;3.33;;;15.10;86.30;;;;;;4990861;28;20397;-71
2022/03/19 03:01:44;;;;;;;10.30;3.05;;;15.30;83.80;;;;;;4992541;28;20523;-70
2022/03/19 03:04:10;;;;;;;10.05;3.70;;;;;;;;;;4997687;28;20050;-70
2022/03/19 03:06:37;;;;;;;10.25;3.05;;;15.00;86.20;;;;;;4997402;28;20042;-71
2022/03/19 03:09:03;;;;;;;8.10;2.70;;;15.30;83.20;;;;;;5011935;28;20045;-70
2022/03/19 03:11:29;;;;;;;8.50;3.00;;;15.10;86.20;;;;;;5016000;28;20387;-70
2022/03/19 03:13:55;;;;;;;11.15;2.80;;;15.10;86.10;;;;;;5016271;28;20125;-70
2022/03/19 03:16:21;;;;;;;8.68;2.92;;;;;;;;;;5001624;28;20136;-71
2022/03/19 03:18:47;;;;;;;9.73;2.97;;;;;;;;;;4997242;28;20399;-70
2022/03/19 03:21:13;;;;;;;9.95;3.10;;;;;;;;;;4982910;28;20370;-70
2022/03/19 03:23:39;;;;;;;11.80;3.70;;;;;;;;;;5016815;28;20480;-73
2022/03/19 03:26:05;;;;;;;8.13;2.95;;;15.30;86.00;;;;;;5016334;28;20046;-73
2022/03/19 03:28:31;;;;;;;10.15;3.30;;;15.10;85.90;;;;;;5017018;28;20042;-73
2022/03/19 03:30:57;;;;;;;11.25;3.45;;;;;;;;;;5003292;28;20068;-73
2022/03/19 03:33:23;;;;;;;8.15;2.90;;;15.20;85.60;;;;;;5001358;28;20054;-73
2022/03/19 03:35:49;;;;;;;8.10;3.30;;;15.20;85.60;;;;;;5013477;28;20057;-73
2022/03/19 03:38:15;;;;;;;11.27;3.90;;;;;;;;;;4996937;28;20046;-72
2022/03/19 03:40:41;;;;;;;9.13;3.65;;;15.40;85.60;;;;;;4996862;28;20049;-73
2022/03/19 03:43:08;;;;;;;9.43;3.38;;;;;;;;;;4996549;28;20082;-73
2022/03/19 03:45:34;;;;;;;14.70;4.05;;;15.50;85.50;;;;;;5005847;28;20056;-73
2022/03/19 03:48:00;;;;;;;8.57;3.05;;;;;;;;;;5013071;28;20046;-73
2022/03/19 03:50:26;;;;;;;10.02;3.22;;;15.40;85.50;;;;;;5008875;28;20185;-72
2022/03/19 03:52:52;;;;;;;9.55;3.33;;;15.10;85.20;;;;;;4979172;28;20125;-73
2022/03/19 03:55:18;;;;;;;10.07;3.53;;;;;;;;;;4985602;28;20092;-73
2022/03/19 03:57:44;;;;;;;10.48;3.22;;;15.30;85.40;;;;;;5005985;28;20046;-73
2022/03/19 04:00:10;;;;;;;10.85;3.20;;;15.20;85.40;;;;;;4996745;28;20453;-73
2022/03/19 04:02:36;;;;;;;11.52;4.18;;;15.30;85.50;;;;;;4995795;28;20157;-73
2022/03/19 04:05:03;;;;;;;10.20;3.30;;;15.10;85.60;;;;;;4996596;28;20081;-73
2022/03/19 04:07:30;;;;;;;11.30;3.95;;;;;;;;;;5004469;28;20128;-71
2022/03/19 04:09:56;;;;;;;8.55;3.83;;;;;;;;;;5003224;28;20078;-70
2022/03/19 04:12:22;;;;;;;11.77;4.03;;;;;;;;;;4996328;28;20042;-70
2022/03/19 04:14:49;;;;;;;10.70;3.88;;;14.80;85.10;;;;;;4996451;28;20046;-71
2022/03/19 04:17:15;;;;;;;12.07;4.20;;;15.00;85.40;;;;;;5000341;28;20108;-70
2022/03/19 04:19:41;;;;;;;10.23;4.15;;;15.10;85.60;;;;;;5006772;28;20468;-71
2022/03/19 04:22:07;;;;;;;11.50;3.67;;;;;;;;;;4999913;28;20046;-69
2022/03/19 04:24:33;;;;;;;9.57;4.00;;;14.90;85.40;;;;;;5003374;28;20077;-71
2022/03/19 04:26:59;;;;;;;8.90;3.90;;;14.90;85.50;;;;;;5005244;28;20050;-70
2022/03/19 04:29:25;;;;;;;15.15;4.10;;;15.00;82.30;;;;;;5015875;28;20041;-67
2022/03/19 04:31:51;;;;;;;10.73;4.40;;;14.90;85.50;;;;;;5003895;28;20045;-65
2022/03/19 04:34:17;;;;;;;11.73;4.25;;;;;;;;;;4996086;28;20128;-65
2022/03/19 04:36:43;;;;;;;10.48;3.95;;;;;;;;;;5006203;28;20046;-65
2022/03/19 04:39:09;;;;;;;11.45;3.88;;;14.90;85.60;;;;;;4996647;28;20124;-73
2022/03/19 04:41:36;;;;;;;9.38;4.10;;;15.20;85.80;;;;;;4998347;28;20177;-69
2022/03/19 04:44:02;;;;;;;13.55;4.30;;;14.80;85.60;;;;;;4995696;28;20046;-73
2022/03/19 04:46:28;;;;;;;10.00;3.83;;;;;;;;;;4995745;28;20043;-74
2022/03/19 04:48:54;;;;;;;10.25;4.22;;;15.00;85.40;;;;;;4995816;28;20116;-73
2022/03/19 04:51:21;;;;;;;10.27;4.05;;;14.80;85.30;;;;;;4977916;28;20493;-73
2022/03/19 04:53:51;;;;;;;12.75;4.45;;;15.10;81.40;;;;;;4978484;28;20105;-74
2022/03/19 04:56:17;;;;;;;9.25;4.32;;;15.00;82.30;;;;;;4995453;28;20046;-73
2022/03/19 04:58:43;;;;;;;13.07;5.00;;;15.10;85.30;;;;;;4996647;28;20043;-73
2022/03/19 05:01:09;;;;;;;9.90;5.03;;;15.00;85.10;;;;;;4994351;28;20400;-69
2022/03/19 05:03:34;;;;;;;13.02;4.82;;;15.00;85.40;;;;;;5014251;28;20415;-73
2022/03/19 05:06:00;;;;;;;12.50;4.63;;;14.90;85.20;;;;;;5013327;28;20046;-73
2022/03/19 05:08:26;;;;;;;11.20;5.10;;;;;;;;;;5014173;28;20077;-73
2022/03/19 05:13:37;;;;;;;12.88;4.78;;;14.80;82.70;;;;;;4995123;28;20061;-73
2022/03/19 05:16:03;;;;;;;13.95;5.00;;;14.70;85.10;;;;;;4995572;28;20042;-73
2022/03/19 05:18:29;;;;;;;11.20;5.05;;;;;;;;;;5009870;28;20404;-68
2022/03/19 05:20:56;;;;;;;10.35;4.88;;;14.70;85.30;;;;;;4998372;28;20038;-73
2022/03/19 05:23:23;;;;;;;14.40;5.25;;;14.70;85.30;;;;;;4999040;28;20038;-74
2022/03/19 05:25:49;;;;;;;11.07;4.82;;;14.50;85.20;;;;;;5015456;28;20442;-73
2022/03/19 05:28:15;;;;;;;13.05;5.05;;;;;;;;;;5013795;28;20518;-74
2022/03/19 05:30:41;;;;;;;11.70;5.10;;;14.50;85.40;;;;;;5000066;28;20054;-73
2022/03/19 05:33:07;;;;;;;12.77;5.93;;;;;;;;;;5000735;28;20046;-74
2022/03/19 05:35:33;;;;;;;12.38;5.28;;;14.20;85.10;;;;;;4998697;28;20044;-71
2022/03/19 05:38:01;;;;;;;11.80;5.60;;;14.60;85.50;;;;;;5013850;28;20046;-71
2022/03/19 05:40:28;;;;;;;12.40;5.22;;;14.70;85.50;;;;;;4984379;28;20060;-71
2022/03/19 05:42:54;;;;;;;11.07;5.03;;;;;;;;;;5009969;28;20519;-70
2022/03/19 05:45:21;;;;;;;12.85;5.47;;;;;;;;;;4995515;28;20136;-71
2022/03/19 05:47:47;;;;;;;11.38;5.10;;;;;;;;;;5010644;28;20038;-71
2022/03/19 05:50:14;;;;;;;14.30;5.75;;;14.50;85.40;;;;;;4993039;28;20065;-69
2022/03/19 05:52:40;;;;;;;12.27;5.32;;;;;;;;;;4994751;28;20049;-71
2022/03/19 05:55:07;;;;;;;9.48;5.22;;;14.10;85.20;;;;;;4994103;28;20050;-70
2022/03/19 05:57:33;;;;;;;14.93;6.03;;;14.60;82.70;;;;;;4994085;28;20556;-71
2022/03/19 05:59:59;;;;;;;12.13;5.60;;;14.50;85.20;;;;;;4994567;28;20125;-71
2022/03/19 06:02:25;;;;;;;12.57;5.75;;;14.40;82.50;;;;;;5001709;28;20081;-71
2022/03/19 06:04:54;;;;;;;13.80;6.05;;;14.60;85.30;;;;;;5000217;28;20054;-72
2022/03/19 06:07:20;;;;;;;16.02;6.13;;;;;;;;;;4995333;28;20174;-71
2022/03/19 06:09:46;;;;;;;12.15;5.63;;;;;;;;;;5013581;28;20050;-68
2022/03/19 06:12:12;;;;;;;13.70;6.25;;;14.60;85.00;;;;;;4998679;28;20388;-68
2022/03/19 06:14:38;;;;;;;13.35;6.00;;;14.50;82.20;;;;;;5001327;28;20034;-71
2022/03/19 06:17:04;;;;;;;14.77;6.32;;;14.70;84.90;;;;;;4999856;28;20046;-71
2022/03/19 06:19:30;;;;;;;13.43;6.25;;;14.90;84.90;;;;;;4993984;28;20404;-71
2022/03/19 06:21:55;;;;;;;15.30;6.38;;;15.00;84.90;;;;;;4983347;28;20100;-71
2022/03/19 06:24:23;;;;;;;13.70;6.20;;;;;;;;;;4992580;28;20455;-69
2022/03/19 06:26:50;;;;;;;12.88;6.30;;;14.80;84.30;;;;;;5003045;28;20428;-72
2022/03/19 06:29:16;;;;;;;11.10;5.93;;;14.70;84.10;;;;;;4992701;28;20042;-72
2022/03/19 06:31:43;;;;;;;12.85;5.72;;;14.90;84.20;;;;;;4969609;28;20097;-71
2022/03/19 06:34:08;;;;;;;13.85;6.13;;;15.40;81.40;;;;;;4960134;28;20103;-70
2022/03/19 06:39:19;;;;;;;11.43;5.85;;;;;;;;;;4994918;28;20579;-72
2022/03/19 06:41:45;;;;;;;18.40;6.95;;;;;;;;;;4995345;28;20077;-71
2022/03/19 06:44:11;;;;;;;14.15;5.82;;;15.70;80.90;;;;;;4996613;28;20537;-72
2022/03/19 06:46:36;;;;;;;13.23;5.90;;;15.70;83.40;;;;;;4995195;28;20042;-72
2022/03/19 06:49:02;;;;;;;12.93;6.15;;;15.70;83.40;;;;;;4996089;28;20089;-71
2022/03/19 06:51:28;;;;;;;12.02;5.93;;;16.00;83.20;;;;;;5005732;28;20474;-72
2022/03/19 06:53:54;;;;;;;17.33;6.30;;;16.20;83.20;;;;;;4986402;28;20046;-71
2022/03/19 06:56:19;;;;;;;12.93;6.22;;;15.90;80.00;;;;;;4979567;28;20056;-72
2022/03/19 06:58:45;;;;;;;18.08;6.30;;;16.10;82.70;;;;;;5012618;28;20042;-72
2022/03/19 07:01:17;;;;;;;15.30;6.55;;;;;;;;;;5005282;28;20050;-71
2022/03/19 07:03:44;;;;;;;10.50;5.57;;;16.40;82.40;;;;;;4993449;28;20058;-72
2022/03/19 07:06:10;;;;;;;11.98;5.93;;;16.40;82.20;;;;;;4993604;28;20432;-72
2022/03/19 07:08:36;;;;;;;13.48;5.53;;;16.40;82.00;;;;;;4985015;28;20136;-72
2022/03/19 07:11:02;;;;;;;10.55;5.13;;;;;;;;;;4997140;28;20089;-71
2022/03/19 07:13:28;;;;;;;12.35;5.65;;;16.60;81.70;;;;;;4993249;28;20050;-71
2022/03/19 07:15:54;;;;;;;9.48;5.35;;;16.80;81.50;;;;;;4994132;28;20045;-73
2022/03/19 07:18:20;;;;;;;12.02;5.20;;;16.80;81.30;;;;;;4993467;28;20050;-72
2022/03/19 07:20:45;;;;;;;11.68;5.28;;;16.90;81.30;;;;;;5004577;28;20042;-72
2022/03/19 07:23:11;;;;;;;12.85;5.70;;;16.90;81.00;;;;;;5008462;28;20038;-72
2022/03/19 07:25:38;;;;;;;9.73;5.40;;;17.00;80.80;;;;;;5005651;28;20077;-72
2022/03/19 07:28:09;;;;;;;10.77;5.45;;;16.90;80.60;;;;;;4993502;28;20113;-72
2022/03/19 07:30:35;;;;;;;15.80;5.00;;;;;;;;;;4991816;28;20046;-68
2022/03/19 07:33:01;;;;;;;14.02;5.22;;;17.30;80.20;;;;;;5002097;28;20093;-67
2022/03/19 07:35:27;;;;;;;11.80;4.78;;;17.40;80.30;;;;;;4992943;28;20043;-73
2022/03/19 07:37:53;;;;;;;11.32;5.10;;;17.50;80.00;;;;;;5011423;28;20046;-68
2022/03/19 07:41:45;;;;;;;11.73;4.97;;;;;;;;;;5014108;28;20053;-71
2022/03/19 07:43:06;;;;;;;18.88;5.05;;;17.60;79.80;;;;;;4996670;28;20453;-68
2022/03/19 07:45:32;;;;;;;13.88;5.18;;;17.40;79.70;;;;;;4996575;28;20050;-69
2022/03/19 07:47:58;;;;;;;10.80;4.95;;;;;;;;;;4996668;28;20403;-70
2022/03/19 07:50:24;;;;;;;14.15;5.18;;;17.90;79.40;;;;;;4996070;28;20484;-67
2022/03/19 07:52:51;;;;;;;13.40;4.90;;;;;;;;;;4996850;28;20042;-67
2022/03/19 07:55:17;;;;;;;10.50;4.68;;;17.60;78.90;;;;;;4996481;28;20051;-66
2022/03/19 07:57:43;;;;;;;11.43;4.82;;;;;;;;;;5009830;28;20046;-66
2022/03/19 08:00:09;;;;;;;13.73;5.07;;;17.90;79.00;;;;;;5015149;28;20054;-68
2022/03/19 08:02:35;;;;;;;11.02;4.43;;;18.10;78.90;;;;;;4999893;28;20061;-67
2022/03/19 08:05:03;;;;;;;12.50;5.22;;;17.80;78.60;;;;;;4996650;28;20041;-66
2022/03/19 08:07:29;;;;;;;10.27;4.40;;;18.00;75.60;;;;;;4996266;28;20519;-66
2022/03/19 08:09:55;;;;;;;18.80;5.47;;;18.20;78.50;;;;;;4996314;28;20054;-75
2022/03/19 08:12:21;;;;;;;10.02;4.35;;;18.20;78.20;;;;;;5011474;28;20053;-75
2022/03/19 08:14:47;;;;;;;10.52;4.30;;;18.20;78.40;;;;;;5016179;28;20049;-74
2022/03/19 08:17:13;;;;;;;14.75;5.47;;;18.30;78.10;;;;;;5016125;28;20407;-61
2022/03/19 08:19:39;;;;;;;12.23;4.28;;;18.40;78.20;;;;;;5015187;28;20038;-74
2022/03/19 08:22:05;;;;;;;12.43;4.53;;;18.10;77.70;;;;;;5011603;28;20069;-61
2022/03/19 08:24:30;;;;;;;17.95;4.70;;;18.50;77.70;;;;;;4996386;28;20055;-61
2022/03/19 08:26:56;;;;;;;14.82;4.53;;;18.70;78.00;;;;;;4995192;28;20066;-63
2022/03/19 08:29:25;;;;;;;12.98;3.92;;;18.80;78.10;;;;;;4995866;28;20539;-67
2022/03/19 08:31:51;;;;;;;12.55;4.38;;;18.60;77.60;;;;;;4995959;28;20049;-66
2022/03/19 08:34:17;;;;;;;11.70;4.13;;;18.80;77.60;;;;;;4996115;28;20050;-66
2022/03/19 08:36:43;;;;;;;10.95;4.03;;;18.60;77.60;;;;;;4995771;28;20444;-61
2022/03/19 08:41:53;;;;;;;12.13;4.65;;;18.90;77.70;;;;;;4995662;28;20089;-68
2022/03/19 08:44:19;;;;;;;11.32;4.38;;;19.10;77.80;;;;;;5004061;28;20384;-75
2022/03/19 08:46:45;;;;;;;11.75;4.15;;;18.90;77.50;;;;;;4995651;28;20126;-75
2022/03/19 08:49:11;;;;;;;13.70;4.20;;;18.90;74.40;;;;;;4977383;28;20089;-69
2022/03/19 08:51:40;;;;;;;13.40;4.40;;;;;;;;;;4995901;28;20077;-71
2022/03/19 08:54:10;;;;;;;11.40;3.90;;;19.00;77.40;;;;;;4995580;28;20488;-65
2022/03/19 08:56:36;;;;;;;11.70;3.60;;;18.80;77.30;;;;;;5002666;28;20552;-65
2022/03/19 08:59:02;;;;;;;11.68;3.58;;;19.30;77.70;;;;;;5015728;28;20129;-73
2022/03/19 09:01:28;;;;;;;13.73;3.60;;;19.10;77.50;;;;;;5015122;28;20091;-74
2022/03/19 09:03:54;;;;;;;12.55;3.40;;;19.00;77.30;;;;;;4997176;28;20053;-73
2022/03/19 09:06:20;;;;;;;12.10;4.10;;;19.20;77.30;;;;;;5015233;28;20085;-74
2022/03/19 09:08:46;;;;;;;13.68;3.42;;;19.00;77.10;;;;;;5014782;28;20042;-61
2022/03/19 09:11:12;;;;;;;10.07;3.13;;;;;;;;;;5015090;28;20433;-68
2022/03/19 09:13:38;;;;;;;13.48;3.53;;;19.20;77.20;;;;;;5013988;28;20038;-64
2022/03/19 09:16:05;;;;;;;14.80;4.55;;;19.00;73.70;;;;;;5013501;28;20046;-67
2022/03/19 09:18:31;;;;;;;13.30;3.95;;;18.90;76.60;;;;;;5014632;28;20103;-71
2022/03/19 09:20:57;;;;;;;9.38;3.17;;;19.00;76.50;;;;;;5013459;28;20045;-61
2022/03/19 09:23:23;;;;;;;9.73;3.35;;;18.90;76.40;;;;;;5014461;28;20156;-71
2022/03/19 09:25:49;;;;;;;11.20;3.38;;;18.90;76.20;;;;;;5014583;28;20038;-69
2022/03/19 09:28:15;;;;;;;9.95;2.75;;;;;;;;;;5014403;28;20171;-61
2022/03/19 09:30:41;;;;;;;10.35;3.22;;;18.80;76.50;;;;;;5013664;28;20510;-64
2022/03/19 09:33:07;;;;;;;9.75;3.17;;;;;;;;;;5014226;28;20125;-63
2022/03/19 09:35:34;;;;;;;13.30;3.22;;;18.40;75.90;;;;;;5014324;28;20116;-65
2022/03/19 09:38:00;;;;;;;12.48;3.50;;;19.10;73.40;;;;;;5014175;28;20042;-65
2022/03/19 09:40:26;;;;;;;10.95;3.17;;;18.70;73.00;;;;;;5014126;28;20052;-64
2022/03/19 09:42:53;;;;;;;8.38;2.67;;;18.40;72.80;;;;;;4980688;28;20046;-61
2022/03/19 09:45:19;;;;;;;9.75;3.42;;;18.70;76.10;;;;;;4997092;28;20046;-61
2022/03/19 09:47:46;;;;;;;10.43;2.90;;;18.80;76.10;;;;;;5013667;28;20073;-65
2022/03/19 09:50:12;;;;;;;11.85;3.35;;;;;;;;;;5014492;28;20392;-63
2022/03/19 09:52:38;;;;;;;10.48;2.90;;;18.50;76.20;;;;;;5014375;28;20042;-69
2022/03/19 09:55:08;;;;;;;10.77;2.78;;;18.40;76.00;;;;;;5012808;28;20037;-62
2022/03/19 09:57:34;;;;;;;12.23;2.63;;;18.40;75.10;;;;;;4996810;28;20045;-64
2022/03/19 10:00:01;;;;;;;8.60;2.60;;;;;;;;;;4995936;28;20072;-61
2022/03/19 10:02:27;;;;;;;8.25;3.33;;;;;;;;;;5013971;28;20408;-68
2022/03/19 10:04:53;;;;;;;8.18;2.80;;;18.50;76.40;;;;;;4993646;28;20086;-64
2022/03/19 10:10:11;;;;;;;7.85;2.80;;;18.20;76.40;;;;;;4974976;28;20078;-66
2022/03/19 10:12:39;;;;;;;10.35;2.80;;;;;;;;;;4974730;28;20058;-64
2022/03/19 10:15:09;;;;;;;6.80;2.28;;;18.30;76.40;;;;;;4974568;28;20057;-65
2022/03/19 10:17:38;;;;;;;8.60;2.60;;;18.20;76.50;;;;;;4974587;28;20489;-62
2022/03/19 10:20:11;;;;;;;10.35;3.00;;;18.20;76.60;;;;;;4974874;28;20089;-69
2022/03/19 10:22:44;;;;;;;8.38;2.22;;;18.40;76.80;;;;;;4975013;28;20046;-61
2022/03/19 10:25:11;;;;;;;;;;;17.90;73.90;;;;;;4975194;28;20046;-64
2022/03/19 10:27:44;;;;;;;8.02;2.80;;;18.20;76.90;;;;;;4974853;28;20340;-63
2022/03/19 10:30:20;;;;;;;8.52;2.70;;;18.10;73.80;;;;;;4974477;28;20098;-67
2022/03/19 10:32:55;;;;;;;10.23;2.30;;;18.00;76.90;;;;;;4974432;28;20068;-67
2022/03/19 10:35:29;;;;;;;8.43;2.63;;;17.90;76.80;;;;;;4974413;28;20106;-68
2022/03/19 10:37:55;;;;;;;8.75;2.58;;;17.90;76.80;;;;;;4974707;28;20077;-68
2022/03/19 10:40:21;;;;;;;6.00;2.17;;;18.10;76.90;;;;;;4977553;28;20089;-64
2022/03/19 10:42:46;;;;;;;8.65;2.95;;;18.10;77.10;;;;;;4969329;28;20465;-65
2022/03/19 10:45:15;;;;;;;5.72;1.98;;;;;;;;;;4984926;28;20046;-65
2022/03/19 10:47:45;;;;;;;10.38;2.90;;;17.90;77.10;;;;;;4973739;28;20472;-64
2022/03/19 10:50:11;;;;;;;10.07;2.75;;;18.10;77.10;;;;;;4993909;28;20053;-65
2022/03/19 10:52:37;;;;;;;12.88;3.00;;;18.10;77.00;;;;;;4976694;28;20043;-64
2022/03/19 10:55:04;;;;;;;8.20;2.10;;;17.80;74.10;;;;;;4993010;28;20093;-61
2022/03/19 10:57:31;;;;;;;9.45;2.53;;;18.00;77.00;;;;;;4993845;28;20042;-61
2022/03/19 10:59:56;;;;;;;8.13;2.20;;;18.00;77.00;;;;;;4976073;28;20049;-62
2022/03/19 11:02:22;;;;;;;7.28;1.95;;;17.90;76.60;;;;;;4997373;28;20500;-63
2022/03/19 11:04:48;;;;;;;10.63;3.10;;;17.90;76.70;;;;;;5012026;28;20053;-62
2022/03/19 11:07:14;;;;;;;6.10;2.00;;;17.90;73.90;;;;;;5004505;28;20049;-64
2022/03/19 11:09:39;;;;;;;6.65;1.90;;;17.80;76.50;;;;;;4995581;28;20507;-61
2022/03/19 11:12:07;;;;;;;5.68;2.30;;;17.70;76.40;;;;;;4977416;28;20053;-61
2022/03/19 11:14:33;;;;;;;5.28;1.80;;;17.90;76.50;;;;;;4996863;28;20051;-62
2022/03/19 11:19:49;;;;;;;6.60;2.05;;;;;;;;;;4997585;28;20416;-62
2022/03/19 11:22:15;;;;;;;6.00;1.83;;;17.80;76.30;;;;;;4997464;28;20122;-61
2022/03/19 11:24:58;;;;;;;5.75;1.60;;;17.90;73.00;;;;;;4997094;28;20527;-61
2022/03/19 11:27:24;;;;;;;5.80;1.83;;;18.10;76.20;;;;;;4996281;28;20046;-61
2022/03/19 11:29:50;;;;;;;6.03;2.38;;;17.70;75.90;;;;;;4996426;28;20057;-61
2022/03/19 11:32:23;;;;;;;5.78;1.80;;;18.00;76.00;;;;;;4995933;28;20082;-62
2022/03/19 11:34:49;;;;;;;6.82;2.10;;;18.10;75.00;;;;;;4996027;28;20046;-62
2022/03/19 11:37:15;;;;;;;8.00;2.58;;;18.00;75.90;;;;;;5012623;28;20053;-62
2022/03/19 11:40:02;;;;;;;5.68;1.92;;;18.00;76.00;;;;;;5016698;28;20399;-65
2022/03/19 11:42:29;;;;;;;5.60;1.95;;;17.90;72.70;;;;;;5016411;28;20606;-63
2022/03/19 11:44:55;;;;;;;5.72;1.90;;;18.20;73.40;;;;;;5016261;28;20046;-64
2022/03/19 11:47:22;;;;;;;8.48;2.17;;;;;;;;;;4985287;28;20053;-65
2022/03/19 11:49:52;;;;;;;5.82;2.05;;;17.90;75.80;;;;;;4995789;28;20042;-65
2022/03/19 11:52:44;;;;;;;7.53;2.10;;;18.30;73.10;;;;;;4996711;28;20113;-63
2022/03/19 11:55:11;;;;;;;7.57;1.95;;;18.50;76.00;;;;;;4989147;28;20051;-62
2022/03/19 11:57:46;;;;;;;7.20;2.00;;;18.20;75.80;;;;;;4996793;28;20149;-62
2022/03/19 12:00:19;;;;;;;6.32;1.70;;;18.30;73.00;;;;;;4979022;28;20049;-66
2022/03/19 12:03:24;;;;;;;6.40;1.92;;;18.20;75.70;;;;;;4996801;28;20473;-60
2022/03/19 12:05:50;;;;;;;6.88;2.00;;;18.30;75.70;;;;;;4955752;29;20683;-62
2022/03/19 12:08:20;;;;;;;7.55;2.20;;;18.10;73.00;;;;;;4955683;29;20118;-65
2022/03/19 12:11:13;;;;;;;7.88;1.73;;;18.40;75.90;;;;;;4955764;29;20052;-66
2022/03/19 12:13:39;;;;;;;3.75;1.83;;;18.30;75.90;;;;;;4956179;29;20113;-66
2022/03/19 12:16:08;;;;;;;6.43;2.30;;;18.30;76.00;;;;;;4955596;29;20090;-62
2022/03/19 12:18:41;;;;;;;5.95;2.50;;;18.50;76.10;;;;;;4959548;28;20130;-61
2022/03/19 12:21:10;;;;;;;6.10;2.05;;;18.30;76.00;;;;;;4977742;28;20404;-63
2022/03/19 12:23:49;;;;;;;8.18;2.05;;;18.10;75.80;;;;;;4974807;28;20506;-63
2022/03/19 12:26:16;;;;;;;6.07;1.80;;;18.30;75.90;;;;;;4974678;28;20051;-62
2022/03/19 12:28:43;;;;;;;7.00;1.88;;;18.20;75.90;;;;;;4974697;28;20438;-62
2022/03/19 12:31:10;;;;;;;8.27;1.85;;;18.40;75.80;;;;;;4943436;28;20050;-61
2022/03/19 12:33:36;;;;;;;5.45;1.90;;;18.50;75.90;;;;;;4958790;28;20047;-62
2022/03/19 12:36:19;;;;;;;4.72;1.85;;;18.60;76.00;;;;;;4942556;28;20061;-61
2022/03/19 12:38:45;;;;;;;5.78;1.70;;;18.60;75.90;;;;;;4974186;28;20134;-63
2022/03/19 12:41:27;;;;;;;7.15;2.17;;;18.40;75.80;;;;;;4961491;28;20551;-63
2022/03/19 12:43:56;;;;;;;4.85;1.88;;;18.20;72.90;;;;;;4996558;28;20052;-62
2022/03/19 12:46:22;;;;;;;7.18;2.00;;;18.50;75.80;;;;;;4977981;28;20564;-63
2022/03/19 12:48:48;;;;;;;6.95;1.83;;;18.50;73.10;;;;;;5006694;28;20133;-62
2022/03/19 12:51:22;;;;;;;6.43;1.80;;;18.40;72.90;;;;;;4998007;28;20507;-61
2022/03/19 12:53:48;;;;;;;5.68;2.10;;;18.40;75.70;;;;;;5013971;28;20050;-65
2022/03/19 12:56:17;;;;;;;6.60;2.03;;;18.30;75.60;;;;;;4994681;28;20162;-61
2022/03/19 12:58:44;;;;;;;6.70;1.90;;;18.30;75.80;;;;;;4995815;28;20049;-62
2022/03/19 13:01:11;;;;;;;5.63;1.80;;;18.40;73.00;;;;;;4995815;28;20038;-63
2022/03/19 13:03:37;;;;;;;6.78;2.00;;;;;;;;;;4993774;28;20055;-62
2022/03/19 13:06:03;;;;;;;8.38;2.08;;;18.50;73.10;;;;;;4987648;28;20126;-61
2022/03/19 13:08:29;;;;;;;6.63;2.38;;;18.50;75.70;;;;;;4995592;28;20169;-62
2022/03/19 13:10:54;;;;;;;6.97;1.83;;;18.30;75.60;;;;;;4978603;28;20401;-63
2022/03/19 13:13:20;;;;;;;5.57;1.70;;;18.60;75.90;;;;;;4995261;28;20118;-63
2022/03/19 13:15:50;;;;;;;5.68;1.70;;;18.30;75.50;;;;;;4995196;28;20046;-62